createdAt,value
2018-07-03T00:00:54.517Z,16.62
2018-07-03T00:03:24.723Z,16.54
2018-07-03T00:05:53.983Z,16.40
2018-07-03T00:08:23.535Z,16.37
2018-07-03T00:10:52.694Z,16.41
2018-07-03T00:13:21.778Z,16.29
2018-07-03T00:15:50.866Z,16.27
2018-07-03T00:18:19.968Z,16.15
2018-07-03T00:20:49.042Z,16.15
2018-07-03T00:23:18.553Z,16.08
2018-07-03T00:25:48.046Z,16.01
2018-07-03T00:28:17.143Z,15.90
2018-07-03T00:30:46.262Z,15.82
2018-07-03T00:33:15.427Z,15.96
2018-07-03T00:35:47.584Z,15.99
2018-07-03T00:38:16.714Z,15.95
2018-07-03T00:40:45.895Z,15.90
2018-07-03T00:43:15.068Z,15.84
2018-07-03T00:45:44.199Z,15.84
2018-07-03T00:48:13.323Z,15.90
2018-07-03T00:50:42.231Z,15.94
2018-07-03T00:53:11.639Z,15.91
2018-07-03T00:55:40.782Z,15.79
2018-07-03T00:58:10.454Z,15.84
2018-07-03T01:00:40.424Z,15.90
2018-07-03T01:03:09.723Z,15.92
2018-07-03T01:05:39.073Z,16.04
2018-07-03T01:08:08.486Z,16.06
2018-07-03T01:10:37.715Z,16.13
2018-07-03T01:13:06.978Z,16.09
2018-07-03T01:15:36.082Z,16.13
2018-07-03T01:18:07.515Z,16.08
2018-07-03T01:20:36.619Z,15.93
2018-07-03T01:23:05.953Z,15.93
2018-07-03T01:25:35.139Z,15.89
2018-07-03T01:28:04.666Z,15.69
2018-07-03T01:30:33.811Z,15.53
2018-07-03T01:33:02.963Z,15.32
2018-07-03T01:35:32.103Z,15.29
2018-07-03T01:38:01.282Z,15.30
2018-07-03T01:40:30.723Z,15.34
2018-07-03T01:42:59.829Z,15.17
2018-07-03T01:45:28.950Z,15.19
2018-07-03T01:47:58.054Z,15.13
2018-07-03T01:50:27.150Z,15.12
2018-07-03T01:52:57.886Z,15.06
2018-07-03T01:55:27.010Z,15.01
2018-07-03T01:57:56.103Z,15.10
2018-07-03T02:00:25.195Z,15.07
2018-07-03T02:02:54.394Z,14.89
2018-07-03T02:05:24.018Z,14.97
2018-07-03T02:07:55.201Z,15.05
2018-07-03T02:10:25.182Z,15.11
2018-07-03T02:12:55.014Z,15.08
2018-07-03T02:15:24.635Z,14.89
2018-07-03T02:17:54.594Z,14.73
2018-07-03T02:20:23.802Z,14.70
2018-07-03T02:22:55.737Z,14.67
2018-07-03T02:25:24.862Z,14.66
2018-07-03T02:27:54.279Z,14.49
2018-07-03T02:30:23.428Z,14.70
2018-07-03T02:32:52.531Z,14.92
2018-07-03T02:35:21.659Z,14.78
2018-07-03T02:37:50.545Z,14.63
2018-07-03T02:40:19.663Z,14.39
2018-07-03T02:42:48.834Z,14.40
2018-07-03T02:45:17.947Z,14.59
2018-07-03T02:47:47.055Z,14.75
2018-07-03T02:50:16.218Z,14.58
2018-07-03T02:52:45.332Z,14.40
2018-07-03T02:55:14.439Z,14.28
2018-07-03T02:57:43.530Z,14.30
2018-07-03T03:00:12.662Z,14.53
2018-07-03T03:02:41.750Z,14.33
2018-07-03T03:05:10.862Z,14.14
2018-07-03T03:07:40.043Z,14.18
2018-07-03T03:10:09.953Z,14.19
2018-07-03T03:12:39.641Z,14.12
2018-07-03T03:15:11.017Z,14.02
2018-07-03T03:17:40.610Z,14.11
2018-07-03T03:20:09.758Z,14.06
2018-07-03T03:22:38.944Z,13.99
2018-07-03T03:25:08.062Z,13.95
2018-07-03T03:27:37.162Z,13.93
2018-07-03T03:30:06.287Z,13.96
2018-07-03T03:32:35.630Z,13.94
2018-07-03T03:35:04.790Z,13.98
2018-07-03T03:37:34.490Z,14.25
2018-07-03T03:40:03.603Z,14.23
2018-07-03T03:42:32.755Z,14.42
2018-07-03T03:45:02.550Z,14.35
2018-07-03T03:47:31.726Z,14.42
2018-07-03T03:50:00.826Z,14.45
2018-07-03T03:52:30.714Z,14.56
2018-07-03T03:54:59.847Z,14.61
2018-07-03T03:57:29.506Z,14.55
2018-07-03T03:59:58.707Z,14.61
2018-07-03T04:02:27.850Z,14.58
2018-07-03T04:04:56.962Z,14.65
2018-07-03T04:07:26.948Z,15.05
2018-07-03T04:09:56.056Z,15.40
2018-07-03T04:12:25.690Z,15.89
2018-07-03T04:14:55.138Z,16.46
2018-07-03T04:17:24.890Z,16.79
2018-07-03T04:19:53.999Z,17.24
2018-07-03T04:22:23.954Z,17.70
2018-07-03T04:24:53.038Z,18.04
2018-07-03T04:27:22.214Z,18.87
2018-07-03T04:29:51.391Z,19.37
2018-07-03T04:32:20.970Z,20.16
2018-07-03T04:34:50.147Z,20.66
2018-07-03T04:37:19.430Z,21.01
2018-07-03T04:39:48.542Z,21.18
2018-07-03T04:42:17.639Z,21.71
2018-07-03T04:44:46.537Z,22.56
2018-07-03T04:47:15.640Z,22.92
2018-07-03T04:49:44.770Z,22.95
2018-07-03T04:52:14.711Z,23.19
2018-07-03T04:54:43.856Z,23.50
2018-07-03T04:57:12.963Z,23.24
2018-07-03T04:59:42.122Z,23.38
2018-07-03T05:02:11.271Z,23.81
2018-07-03T05:04:40.970Z,23.89
2018-07-03T05:07:10.151Z,23.81
2018-07-03T05:09:39.246Z,24.28
2018-07-03T05:12:08.375Z,24.46
2018-07-03T05:14:37.490Z,24.53
2018-07-03T05:17:06.748Z,25.15
2018-07-03T05:19:36.443Z,25.52
2018-07-03T05:22:05.953Z,25.58
2018-07-03T05:24:35.492Z,26.03
2018-07-03T05:27:04.314Z,26.38
2018-07-03T05:29:33.658Z,25.90
2018-07-03T05:32:03.379Z,26.07
2018-07-03T05:34:33.966Z,26.37
2018-07-03T05:37:03.986Z,26.49
2018-07-03T05:39:33.301Z,26.26
2018-07-03T05:42:02.534Z,27.11
2018-07-03T05:44:31.777Z,27.21
2018-07-03T05:47:01.040Z,27.42
2018-07-03T05:49:30.474Z,27.72
2018-07-03T05:51:59.959Z,27.02
2018-07-03T05:54:30.059Z,27.06
2018-07-03T05:56:58.922Z,27.42
2018-07-03T05:59:28.482Z,28.18
2018-07-03T06:01:58.394Z,29.27
2018-07-03T06:04:27.493Z,29.95
2018-07-03T06:06:56.630Z,30.22
2018-07-03T06:09:25.724Z,30.15
2018-07-03T06:11:54.818Z,30.81
2018-07-03T06:14:23.913Z,31.24
2018-07-03T06:16:55.282Z,30.67
2018-07-03T06:19:25.723Z,30.27
2018-07-03T06:21:56.386Z,30.71
2018-07-03T06:24:26.296Z,30.36
2018-07-03T06:26:55.857Z,30.22
2018-07-03T06:29:25.818Z,30.38
2018-07-03T06:31:54.954Z,30.43
2018-07-03T06:34:24.945Z,30.74
2018-07-03T06:36:53.713Z,31.47
2018-07-03T06:39:22.797Z,31.07
2018-07-03T06:41:52.146Z,31.46
2018-07-03T06:44:21.230Z,31.02
2018-07-03T06:46:51.115Z,30.67
2018-07-03T06:49:20.208Z,31.38
2018-07-03T06:51:49.389Z,31.84
2018-07-03T06:54:18.438Z,31.44
2018-07-03T06:56:48.531Z,31.87
2018-07-03T06:59:18.371Z,32.57
2018-07-03T07:02:18.903Z,33.06
2018-07-03T07:04:48.433Z,33.39
2018-07-03T07:07:18.385Z,33.67
2018-07-03T07:09:47.515Z,33.39
2018-07-03T07:12:16.610Z,33.91
2018-07-03T07:14:45.695Z,34.45
2018-07-03T07:17:14.828Z,33.92
2018-07-03T07:19:44.586Z,34.27
2018-07-03T07:22:13.670Z,35.30
2018-07-03T07:24:42.858Z,35.64
2018-07-03T07:27:12.451Z,35.48
2018-07-03T07:29:41.856Z,34.05
2018-07-03T07:32:11.439Z,34.97
2018-07-03T07:34:40.774Z,34.46
2018-07-03T07:37:09.890Z,33.03
2018-07-03T07:39:39.030Z,34.14
2018-07-03T07:42:08.130Z,34.51
2018-07-03T07:44:37.226Z,33.80
2018-07-03T07:47:06.511Z,32.67
2018-07-03T07:49:35.618Z,34.76
2018-07-03T07:52:06.234Z,35.54
2018-07-03T07:54:35.341Z,35.41
2018-07-03T07:57:04.467Z,35.55
2018-07-03T07:59:33.546Z,35.28
2018-07-03T08:02:02.698Z,35.93
2018-07-03T08:04:31.855Z,35.88
2018-07-03T08:07:01.719Z,35.74
2018-07-03T08:09:30.930Z,36.02
2018-07-03T08:12:00.228Z,36.92
2018-07-03T08:14:29.354Z,35.46
2018-07-03T08:16:58.905Z,34.01
2018-07-03T08:19:28.154Z,36.16
2018-07-03T08:21:57.291Z,36.69
2018-07-03T08:24:26.736Z,36.99
2018-07-03T08:26:56.276Z,38.41
2018-07-03T08:29:26.224Z,38.30
2018-07-03T08:31:56.091Z,35.76
2018-07-03T08:34:26.624Z,35.76
2018-07-03T08:36:55.966Z,35.26
2018-07-03T08:39:25.095Z,34.80
2018-07-03T08:41:54.230Z,36.85
2018-07-03T08:44:23.311Z,38.43
2018-07-03T08:46:53.185Z,37.74
2018-07-03T08:49:22.511Z,38.61
2018-07-03T08:51:51.678Z,38.28
2018-07-03T08:54:20.690Z,39.28
2018-07-03T08:56:50.361Z,39.49
2018-07-03T08:59:19.436Z,39.95
2018-07-03T09:01:48.805Z,40.08
2018-07-03T09:04:18.363Z,39.11
2018-07-03T09:06:47.483Z,40.00
2018-07-03T09:09:16.615Z,40.20
2018-07-03T09:11:45.735Z,37.79
2018-07-03T09:14:14.846Z,37.17
2018-07-03T09:16:43.978Z,37.15
2018-07-03T09:19:13.088Z,36.33
2018-07-03T09:21:42.590Z,38.98
2018-07-03T09:24:11.699Z,36.74
2018-07-03T09:26:40.970Z,36.54
2018-07-03T09:29:10.207Z,36.95
2018-07-03T09:31:39.798Z,37.68
2018-07-03T09:34:08.950Z,38.85
2018-07-03T09:36:38.770Z,39.06
2018-07-03T09:39:10.965Z,39.62
2018-07-03T09:41:40.950Z,39.64
2018-07-03T09:44:10.847Z,38.07
2018-07-03T09:46:40.166Z,37.77
2018-07-03T09:49:10.102Z,38.04
2018-07-03T09:51:39.429Z,38.79
2018-07-03T09:54:09.078Z,39.33
2018-07-03T09:56:38.870Z,38.36
2018-07-03T09:59:08.190Z,37.43
2018-07-03T10:01:37.710Z,39.91
2018-07-03T10:04:07.030Z,38.00
2018-07-03T10:06:36.218Z,37.62
2018-07-03T10:09:08.841Z,37.51
2018-07-03T10:11:38.498Z,38.51
2018-07-03T10:14:09.045Z,38.55
2018-07-03T10:16:39.630Z,40.16
2018-07-03T10:19:09.215Z,41.50
2018-07-03T10:21:38.410Z,38.52
2018-07-03T10:24:08.103Z,36.76
2018-07-03T10:26:37.918Z,37.04
2018-07-03T10:29:08.299Z,38.98
2018-07-03T10:31:37.787Z,37.76
2018-07-03T10:34:06.640Z,40.03
2018-07-03T10:36:35.986Z,38.88
2018-07-03T10:39:10.407Z,37.55
2018-07-03T10:41:39.823Z,40.40
2018-07-03T10:44:08.937Z,41.18
2018-07-03T10:46:38.027Z,38.26
2018-07-03T10:49:07.222Z,35.90
2018-07-03T10:51:36.314Z,34.81
2018-07-03T10:54:05.431Z,34.22
2018-07-03T10:56:35.230Z,35.86
2018-07-03T10:59:04.390Z,37.23
2018-07-03T11:01:33.517Z,38.40
2018-07-03T11:04:03.434Z,39.40
2018-07-03T11:06:32.591Z,39.39
2018-07-03T11:09:01.690Z,38.00
2018-07-03T11:11:30.774Z,39.28
2018-07-03T11:14:00.166Z,39.42
2018-07-03T11:16:29.215Z,38.75
2018-07-03T11:18:58.274Z,39.46
2018-07-03T11:21:27.411Z,40.22
2018-07-03T11:23:56.915Z,38.76
2018-07-03T11:26:26.002Z,36.90
2018-07-03T11:28:56.171Z,34.93
2018-07-03T11:31:26.064Z,33.30
2018-07-03T11:33:55.954Z,32.94
2018-07-03T11:36:25.333Z,33.30
2018-07-03T11:38:54.962Z,33.03
2018-07-03T11:41:24.608Z,33.19
2018-07-03T11:43:54.431Z,32.99
2018-07-03T11:46:23.767Z,34.23
2018-07-03T11:48:53.718Z,35.51
2018-07-03T11:51:22.827Z,36.44
2018-07-03T11:53:51.934Z,36.96
2018-07-03T11:56:21.619Z,36.66
2018-07-03T11:58:50.724Z,35.12
2018-07-03T12:01:19.842Z,34.14
2018-07-03T12:03:48.974Z,33.14
2018-07-03T12:06:18.070Z,33.54
2018-07-03T12:08:47.177Z,33.59
2018-07-03T12:11:16.483Z,33.35
2018-07-03T12:13:46.387Z,31.87
2018-07-03T12:16:16.458Z,32.85
2018-07-03T12:18:50.774Z,33.62
2018-07-03T12:21:19.587Z,33.49
2018-07-03T12:23:49.210Z,33.95
2018-07-03T12:26:18.352Z,33.88
2018-07-03T12:28:47.485Z,33.53
2018-07-03T12:31:17.511Z,34.61
2018-07-03T12:33:46.998Z,36.82
2018-07-03T12:36:16.107Z,38.54
2018-07-03T12:38:45.414Z,39.55
2018-07-03T12:41:14.543Z,39.39
2018-07-03T12:43:43.770Z,38.59
2018-07-03T12:46:13.603Z,38.06
2018-07-03T12:48:43.546Z,36.95
2018-07-03T12:51:13.509Z,37.16
2018-07-03T12:53:43.370Z,38.23
2018-07-03T12:56:13.312Z,38.98
2018-07-03T12:58:43.187Z,40.58
2018-07-03T13:01:12.536Z,40.04
2018-07-03T13:03:41.646Z,40.34
2018-07-03T13:06:11.126Z,40.98
2018-07-03T13:08:41.194Z,41.93
2018-07-03T13:11:10.287Z,42.99
2018-07-03T13:13:39.382Z,40.80
2018-07-03T13:16:08.515Z,37.75
2018-07-03T13:18:37.602Z,37.78
2018-07-03T13:21:07.331Z,36.64
2018-07-03T13:23:36.466Z,37.05
2018-07-03T13:26:05.985Z,38.55
2018-07-03T13:28:35.110Z,41.67
2018-07-03T13:31:04.255Z,40.12
2018-07-03T13:33:33.376Z,38.38
2018-07-03T13:36:02.771Z,39.31
2018-07-03T13:38:31.950Z,40.59
2018-07-03T13:41:01.223Z,39.39
2018-07-03T13:43:30.840Z,36.50
2018-07-03T13:45:59.970Z,35.67
2018-07-03T13:48:29.125Z,37.10
2018-07-03T13:50:58.514Z,37.47
2018-07-03T13:53:28.082Z,38.81
2018-07-03T13:55:57.208Z,38.14
2018-07-03T13:58:26.558Z,38.78
2018-07-03T14:00:55.814Z,39.16
2018-07-03T14:03:25.282Z,39.29
2018-07-03T14:05:54.449Z,38.06
2018-07-03T14:08:23.531Z,38.44
2018-07-03T14:10:52.605Z,40.77
2018-07-03T14:13:21.775Z,43.09
2018-07-03T14:15:50.894Z,42.46
2018-07-03T14:18:24.952Z,42.39
2018-07-03T14:20:56.166Z,41.94
2018-07-03T14:23:25.535Z,38.99
2018-07-03T14:25:54.674Z,38.90
2018-07-03T14:28:24.066Z,41.51
2018-07-03T14:30:53.202Z,42.11
2018-07-03T14:33:22.518Z,42.01
2018-07-03T14:35:51.638Z,38.79
2018-07-03T14:38:20.900Z,37.66
2018-07-03T14:40:50.201Z,37.57
2018-07-03T14:43:20.039Z,36.16
2018-07-03T14:45:49.787Z,36.97
2018-07-03T14:48:19.415Z,35.02
2018-07-03T14:50:49.039Z,35.03
2018-07-03T14:53:18.930Z,35.66
2018-07-03T14:55:48.387Z,35.82
2018-07-03T14:58:17.175Z,36.38
2018-07-03T15:00:46.311Z,37.48
2018-07-03T15:03:15.530Z,36.79
2018-07-03T15:05:44.637Z,37.78
2018-07-03T15:08:13.247Z,39.25
2018-07-03T15:10:42.389Z,38.02
2018-07-03T15:13:11.550Z,38.75
2018-07-03T15:15:41.550Z,39.76
2018-07-03T15:18:13.197Z,38.30
2018-07-03T15:20:42.685Z,35.77
2018-07-03T15:23:12.048Z,36.83
2018-07-03T15:25:40.825Z,37.67
2018-07-03T15:28:10.330Z,37.31
2018-07-03T15:30:39.414Z,36.98
2018-07-03T15:33:08.578Z,37.81
2018-07-03T15:35:37.659Z,38.76
2018-07-03T15:38:07.676Z,37.27
2018-07-03T15:40:38.734Z,34.02
2018-07-03T15:43:08.380Z,36.41
2018-07-03T15:45:38.113Z,35.51
2018-07-03T15:48:07.215Z,35.80
2018-07-03T15:50:37.125Z,36.77
2018-07-03T15:53:06.258Z,36.89
2018-07-03T15:55:35.382Z,36.20
2018-07-03T15:58:04.527Z,34.47
2018-07-03T16:00:33.706Z,34.68
2018-07-03T16:03:19.847Z,34.92
2018-07-03T16:08:17.843Z,35.62
2018-07-03T16:10:46.938Z,32.30
2018-07-03T16:13:16.026Z,31.38
2018-07-03T16:15:45.546Z,31.36
2018-07-03T16:18:14.625Z,31.78
2018-07-03T16:20:43.718Z,32.08
2018-07-03T16:23:13.150Z,32.97
2018-07-03T16:25:42.359Z,34.62
2018-07-03T16:28:11.038Z,34.23
2018-07-03T16:30:40.314Z,33.00
2018-07-03T16:33:09.548Z,31.20
2018-07-03T16:35:38.675Z,30.52
2018-07-03T16:38:08.328Z,30.48
2018-07-03T16:40:37.458Z,30.23
2018-07-03T16:43:07.176Z,29.82
2018-07-03T16:45:36.710Z,29.78
2018-07-03T16:48:06.462Z,30.21
2018-07-03T16:50:36.458Z,30.52
2018-07-03T16:53:06.243Z,30.40
2018-07-03T16:55:36.291Z,30.48
2018-07-03T16:58:05.990Z,30.82
2018-07-03T17:00:35.566Z,30.72
2018-07-03T17:03:04.727Z,30.69
2018-07-03T17:05:33.685Z,30.72
2018-07-03T17:08:02.788Z,30.83
2018-07-03T17:10:31.875Z,31.00
2018-07-03T17:13:00.996Z,31.23
2018-07-03T17:15:30.087Z,31.40
2018-07-03T17:17:59.174Z,31.57
2018-07-03T17:20:28.295Z,31.82
2018-07-03T17:22:57.411Z,31.31
2018-07-03T17:25:26.494Z,31.39
2018-07-03T17:27:56.005Z,31.35
2018-07-03T17:30:25.105Z,31.78
2018-07-03T17:32:54.289Z,31.43
2018-07-03T17:35:23.427Z,31.34
2018-07-03T17:37:53.470Z,31.97
2018-07-03T17:40:39.650Z,31.93
2018-07-03T17:45:41.267Z,31.55
2018-07-03T17:48:11.638Z,31.22
2018-07-03T17:50:40.758Z,31.16
2018-07-03T17:53:10.045Z,31.15
2018-07-03T17:55:39.122Z,30.55
2018-07-03T17:58:08.419Z,30.63
2018-07-03T18:00:38.158Z,30.56
2018-07-03T18:03:07.254Z,30.32
2018-07-03T18:05:36.790Z,30.20
2018-07-03T18:08:06.943Z,30.04
2018-07-03T18:10:36.886Z,29.91
2018-07-03T18:13:06.318Z,29.61
2018-07-03T18:15:36.067Z,29.04
2018-07-03T18:18:05.954Z,28.68
2018-07-03T18:20:35.262Z,28.54
2018-07-03T18:23:04.962Z,28.61
2018-07-03T18:25:34.242Z,28.69
2018-07-03T18:28:03.706Z,28.59
2018-07-03T18:30:33.050Z,28.45
2018-07-03T18:33:02.936Z,28.34
2018-07-03T18:35:32.499Z,28.34
2018-07-03T18:38:01.922Z,28.39
2018-07-03T18:40:31.332Z,28.35
2018-07-03T18:43:00.960Z,28.06
2018-07-03T18:45:30.195Z,27.95
2018-07-03T18:48:00.534Z,27.97
2018-07-03T18:50:29.983Z,27.90
2018-07-03T18:52:59.882Z,27.73
2018-07-03T18:55:29.899Z,27.38
2018-07-03T18:57:59.700Z,27.01
2018-07-03T19:00:28.913Z,26.90
2018-07-03T19:02:59.122Z,26.73
2018-07-03T19:05:28.642Z,26.45
2018-07-03T19:07:58.607Z,26.25
2018-07-03T19:10:27.886Z,26.07
2018-07-03T19:12:57.949Z,25.88
2018-07-03T19:15:27.412Z,25.71
2018-07-03T19:17:57.778Z,25.59
2018-07-03T19:20:27.256Z,25.45
2018-07-03T19:22:57.197Z,25.35
2018-07-03T19:25:27.535Z,25.12
2018-07-03T19:27:56.964Z,25.00
2018-07-03T19:30:26.822Z,24.90
2018-07-03T19:32:55.946Z,24.67
2018-07-03T19:35:25.057Z,24.48
2018-07-03T19:37:54.955Z,24.45
2018-07-03T19:40:24.094Z,24.36
2018-07-03T19:43:27.990Z,24.26
2018-07-03T19:45:58.066Z,24.20
2018-07-03T19:48:27.410Z,24.19
2018-07-03T19:50:56.592Z,24.07
2018-07-03T19:53:25.739Z,24.00
2018-07-03T19:55:56.215Z,23.91
2018-07-03T19:58:25.322Z,23.74
2018-07-03T20:00:55.507Z,23.57
2018-07-03T20:03:24.683Z,23.47
2018-07-03T20:05:53.784Z,23.48
2018-07-03T20:08:22.987Z,23.59
2018-07-03T20:10:52.601Z,23.55
2018-07-03T20:13:22.507Z,23.33
2018-07-03T20:15:52.302Z,23.24
2018-07-03T20:18:21.872Z,23.18
2018-07-03T20:20:51.464Z,23.16
2018-07-03T20:23:21.342Z,23.12
2018-07-03T20:25:51.175Z,22.99
2018-07-03T20:28:21.194Z,22.80
2018-07-03T20:30:50.922Z,22.61
2018-07-03T20:33:20.227Z,22.58
2018-07-03T20:35:50.145Z,22.46
2018-07-03T20:38:19.469Z,22.27
2018-07-03T20:40:54.574Z,22.18
2018-07-03T20:43:24.565Z,22.07
2018-07-03T20:45:53.698Z,22.14
2018-07-03T20:48:24.919Z,21.95
2018-07-03T20:50:54.250Z,21.89
2018-07-03T20:53:23.487Z,21.73
2018-07-03T20:55:53.074Z,21.70
2018-07-03T20:58:23.064Z,21.51
2018-07-03T21:00:52.434Z,21.35
2018-07-03T21:03:21.582Z,21.36
2018-07-03T21:05:52.654Z,21.42
2018-07-03T21:08:21.565Z,21.39
2018-07-03T21:10:51.343Z,21.44
2018-07-03T21:13:21.184Z,21.43
2018-07-03T21:15:50.940Z,21.54
2018-07-03T21:18:20.287Z,21.52
2018-07-03T21:20:49.613Z,21.50
2018-07-03T21:23:18.963Z,21.51
2018-07-03T21:25:48.418Z,21.50
2018-07-03T21:28:17.850Z,21.47
2018-07-03T21:30:47.410Z,21.50
2018-07-03T21:33:17.594Z,21.41
2018-07-03T21:35:47.350Z,21.34
2018-07-03T21:38:17.818Z,21.35
2018-07-03T21:40:47.501Z,21.28
2018-07-03T21:43:16.591Z,21.28
2018-07-03T21:45:45.740Z,21.20
2018-07-03T21:48:14.875Z,21.15
2018-07-03T21:50:44.032Z,21.17
2018-07-03T21:53:13.210Z,21.02
2018-07-03T21:55:42.388Z,20.74
2018-07-03T21:58:11.534Z,20.63
2018-07-03T22:00:41.731Z,20.60
2018-07-03T22:03:11.895Z,20.65
2018-07-03T22:05:41.721Z,20.70
2018-07-03T22:08:10.827Z,20.67
2018-07-03T22:10:39.930Z,20.59
2018-07-03T22:13:09.094Z,20.51
2018-07-03T22:15:38.138Z,20.38
2018-07-03T22:18:07.546Z,20.36
2018-07-03T22:20:36.854Z,20.23
2018-07-03T22:23:06.309Z,20.03
2018-07-03T22:25:35.747Z,19.99
2018-07-03T22:28:05.130Z,19.94
2018-07-03T22:30:34.442Z,19.87
2018-07-03T22:33:04.049Z,19.77
2018-07-03T22:35:33.763Z,19.68
2018-07-03T22:38:03.606Z,19.60
2018-07-03T22:40:32.780Z,19.57
2018-07-03T22:43:01.899Z,19.47
2018-07-03T22:45:31.133Z,19.45
2018-07-03T22:48:00.227Z,19.62
2018-07-03T22:50:29.315Z,19.66
2018-07-03T22:52:58.982Z,19.58
2018-07-03T22:55:28.194Z,19.51
2018-07-03T22:57:57.362Z,19.34
2018-07-03T23:00:26.514Z,19.24
2018-07-03T23:02:55.602Z,19.30
2018-07-03T23:05:24.763Z,19.45
2018-07-03T23:07:54.793Z,19.52
2018-07-03T23:10:23.883Z,19.42
2018-07-03T23:12:53.803Z,19.27
2018-07-03T23:15:23.056Z,19.18
2018-07-03T23:17:51.966Z,19.19
2018-07-03T23:20:21.075Z,19.18
2018-07-03T23:22:50.172Z,19.22
2018-07-03T23:25:19.270Z,19.22
2018-07-03T23:27:48.347Z,19.18
2018-07-03T23:30:17.442Z,19.21
2018-07-03T23:32:46.610Z,19.29
2018-07-03T23:35:15.670Z,19.40
2018-07-03T23:37:45.618Z,19.54
2018-07-03T23:40:14.722Z,19.56
2018-07-03T23:42:43.821Z,19.61
2018-07-03T23:45:12.943Z,19.71
2018-07-03T23:47:59.582Z,19.68
2018-07-03T23:50:45.645Z,19.65
2018-07-03T23:53:31.686Z,19.67
2018-07-03T23:56:17.647Z,19.85
2018-07-03T23:59:04.330Z,19.95
